createdAt,value
2023-09-27T00:00:52.430Z,100837.88
2023-09-27T00:03:19.093Z,100843.19
2023-09-27T00:05:46.715Z,100847.06
2023-09-27T00:08:13.661Z,100849.69
2023-09-27T00:10:40.409Z,100855.34
2023-09-27T00:13:07.130Z,100865.75
2023-09-27T00:15:33.814Z,100859.34
2023-09-27T00:18:00.591Z,100865.91
2023-09-27T00:20:27.334Z,100861.28
2023-09-27T00:22:56.044Z,100860.56
2023-09-27T00:25:22.931Z,100864.97
2023-09-27T00:27:49.786Z,100860.56
2023-09-27T00:30:17.611Z,100859.91
2023-09-27T00:32:47.769Z,100866.22
2023-09-27T00:35:23.501Z,100861.75
2023-09-27T00:37:52.581Z,100860.13
2023-09-27T00:40:22.483Z,100854.16
2023-09-27T00:42:49.450Z,100852.53
2023-09-27T00:45:17.057Z,100854.22
2023-09-27T00:47:44.036Z,100845.63
2023-09-27T00:50:11.046Z,100841.44
2023-09-27T00:52:40.943Z,100841.38
2023-09-27T00:55:10.934Z,100835.19
2023-09-27T00:57:37.423Z,100842.31
2023-09-27T01:00:05.293Z,100855.38
2023-09-27T01:02:32.186Z,100861.53
2023-09-27T01:04:59.598Z,100871.53
2023-09-27T01:07:26.285Z,100871.53
2023-09-27T01:09:53.002Z,100875.91
2023-09-27T01:12:39.767Z,100872.38
2023-09-27T01:15:26.881Z,100859.31
2023-09-27T01:18:13.341Z,100844.81
2023-09-27T01:20:59.961Z,100828.56
2023-09-27T01:23:50.378Z,100826.25
2023-09-27T01:26:38.626Z,100811.97
2023-09-27T01:29:05.760Z,100818.78
2023-09-27T01:31:33.048Z,100828.03
2023-09-27T01:33:59.769Z,100823.31
2023-09-27T01:36:26.540Z,100825.88
2023-09-27T01:38:53.332Z,100826.88
2023-09-27T01:41:20.085Z,100825.16
2023-09-27T01:43:46.647Z,100821.94
2023-09-27T01:46:13.462Z,100821.16
2023-09-27T01:48:40.637Z,100815.81
2023-09-27T01:51:07.168Z,100810.91
2023-09-27T01:53:33.755Z,100801.00
2023-09-27T01:56:00.267Z,100794.97
2023-09-27T01:58:27.145Z,100794.53
2023-09-27T02:00:54.533Z,100774.97
2023-09-27T02:03:21.229Z,100771.13
2023-09-27T02:05:48.368Z,100773.75
2023-09-27T02:08:16.735Z,100767.03
2023-09-27T02:10:43.340Z,100762.84
2023-09-27T02:13:09.877Z,100759.84
2023-09-27T02:15:36.417Z,100759.78
2023-09-27T02:18:03.158Z,100760.63
2023-09-27T02:20:31.266Z,100770.19
2023-09-27T02:22:57.890Z,100771.63
2023-09-27T02:25:24.585Z,100780.22
2023-09-27T02:27:51.316Z,100790.50
2023-09-27T02:30:18.029Z,100790.56
2023-09-27T02:32:44.983Z,100793.25
2023-09-27T02:35:14.382Z,100790.50
2023-09-27T02:37:42.442Z,100792.66
2023-09-27T02:40:14.024Z,100786.03
2023-09-27T02:42:45.374Z,100795.56
2023-09-27T02:45:12.831Z,100790.78
2023-09-27T02:47:41.116Z,100795.16
2023-09-27T02:50:12.009Z,100798.59
2023-09-27T02:52:41.654Z,100806.09
2023-09-27T02:55:12.235Z,100816.50
2023-09-27T02:57:39.429Z,100811.66
2023-09-27T03:00:07.594Z,100813.41
2023-09-27T03:02:34.900Z,100814.19
2023-09-27T03:05:05.724Z,100818.72
2023-09-27T03:07:34.934Z,100820.13
2023-09-27T03:10:11.718Z,100818.44
2023-09-27T03:12:40.045Z,100828.16
2023-09-27T03:15:12.614Z,100829.28
2023-09-27T03:17:40.877Z,100825.88
2023-09-27T03:20:16.932Z,100835.59
2023-09-27T03:22:44.107Z,100838.63
2023-09-27T03:25:11.203Z,100848.13
2023-09-27T03:27:38.049Z,100852.25
2023-09-27T03:30:06.960Z,100855.16
2023-09-27T03:32:36.615Z,100856.19
2023-09-27T03:35:04.220Z,100858.91
2023-09-27T03:37:31.632Z,100858.53
2023-09-27T03:39:58.287Z,100863.56
2023-09-27T03:42:25.042Z,100872.31
2023-09-27T03:44:51.919Z,100872.38
2023-09-27T03:47:18.846Z,100875.97
2023-09-27T03:49:45.387Z,100882.19
2023-09-27T03:52:12.767Z,100889.22
2023-09-27T03:54:39.445Z,100894.81
2023-09-27T03:57:06.264Z,100887.00
2023-09-27T03:59:33.988Z,100893.44
2023-09-27T04:02:00.799Z,100896.09
2023-09-27T04:04:28.332Z,100901.59
2023-09-27T04:06:55.068Z,100905.19
2023-09-27T04:09:22.199Z,100918.53
2023-09-27T04:11:48.988Z,100929.25
2023-09-27T04:14:15.784Z,100913.59
2023-09-27T04:16:43.164Z,100919.81
2023-09-27T04:19:09.937Z,100909.50
2023-09-27T04:21:37.505Z,100893.91
2023-09-27T04:24:05.497Z,100888.81
2023-09-27T04:26:32.204Z,100884.09
2023-09-27T04:28:59.069Z,100866.44
2023-09-27T04:31:25.784Z,100847.34
2023-09-27T04:33:52.602Z,100840.59
2023-09-27T04:36:19.467Z,100833.25
2023-09-27T04:38:46.924Z,100832.47
2023-09-27T04:41:18.869Z,100826.38
2023-09-27T04:43:45.997Z,100828.94
2023-09-27T04:46:14.911Z,100833.19
2023-09-27T04:48:41.959Z,100832.53
2023-09-27T04:51:08.661Z,100835.94
2023-09-27T04:53:38.251Z,100832.22
2023-09-27T04:56:08.777Z,100833.94
2023-09-27T04:58:37.590Z,100828.06
2023-09-27T05:01:07.230Z,100819.00
2023-09-27T05:03:34.472Z,100822.53
2023-09-27T05:06:01.236Z,100819.78
2023-09-27T05:08:28.236Z,100825.03
2023-09-27T05:10:56.108Z,100824.03
2023-09-27T05:13:23.493Z,100830.84
2023-09-27T05:15:50.899Z,100842.97
2023-09-27T05:18:17.960Z,100840.34
2023-09-27T05:20:47.676Z,100849.97
2023-09-27T05:23:14.723Z,100845.53
2023-09-27T05:25:42.521Z,100853.31
2023-09-27T05:28:10.388Z,100854.38
2023-09-27T05:30:41.899Z,100858.75
2023-09-27T05:33:23.902Z,100867.53
2023-09-27T05:35:53.954Z,100868.50
2023-09-27T05:38:21.793Z,100874.66
2023-09-27T05:40:48.594Z,100870.19
2023-09-27T05:43:15.419Z,100881.59
2023-09-27T05:45:45.605Z,100898.22
2023-09-27T05:48:15.348Z,100901.59
2023-09-27T05:50:45.967Z,100905.19
2023-09-27T05:53:13.576Z,100908.88
2023-09-27T05:55:41.215Z,100913.38
2023-09-27T05:58:08.029Z,100906.66
2023-09-27T06:00:38.876Z,100913.03
2023-09-27T06:03:05.995Z,100913.84
2023-09-27T06:05:33.763Z,100901.72
2023-09-27T06:08:01.089Z,100902.50
2023-09-27T06:10:28.006Z,100903.97
2023-09-27T06:12:54.967Z,100898.75
2023-09-27T06:15:21.885Z,100910.91
2023-09-27T06:17:50.142Z,100914.22
2023-09-27T06:20:21.940Z,100909.63
2023-09-27T06:22:54.142Z,100900.78
2023-09-27T06:25:24.899Z,100901.34
2023-09-27T06:27:52.883Z,100904.66
2023-09-27T06:30:21.744Z,100907.88
2023-09-27T06:32:49.715Z,100901.84
2023-09-27T06:35:17.041Z,100902.38
2023-09-27T06:37:45.657Z,100903.97
2023-09-27T06:40:17.523Z,100901.22
2023-09-27T06:42:45.271Z,100900.25
2023-09-27T06:45:12.798Z,100905.94
2023-09-27T06:47:42.218Z,100911.72
2023-09-27T06:50:10.608Z,100908.06
2023-09-27T06:52:40.768Z,100912.81
2023-09-27T06:55:11.803Z,100916.63
2023-09-27T06:57:41.869Z,100920.53
2023-09-27T07:00:14.400Z,100919.16
2023-09-27T07:02:43.423Z,100917.94
2023-09-27T07:05:10.546Z,100918.19
2023-09-27T07:07:37.229Z,100922.00
2023-09-27T07:10:04.055Z,100923.91
2023-09-27T07:12:32.077Z,100920.22
2023-09-27T07:14:59.247Z,100918.94
2023-09-27T07:17:26.241Z,100917.63
2023-09-27T07:19:56.882Z,100909.13
2023-09-27T07:22:24.301Z,100912.94
2023-09-27T07:24:50.829Z,100910.19
2023-09-27T07:27:17.480Z,100903.25
2023-09-27T07:29:44.079Z,100904.81
2023-09-27T07:32:11.397Z,100900.28
2023-09-27T07:34:38.840Z,100901.81
2023-09-27T07:37:05.983Z,100903.97
2023-09-27T07:39:33.333Z,100902.53
2023-09-27T07:42:00.597Z,100903.09
2023-09-27T07:44:29.540Z,100896.47
2023-09-27T07:46:56.065Z,100899.31
2023-09-27T07:49:24.188Z,100901.19
2023-09-27T07:51:51.030Z,100899.03
2023-09-27T07:54:17.776Z,100898.41
2023-09-27T07:56:45.079Z,100894.00
2023-09-27T07:59:11.757Z,100899.66
2023-09-27T08:01:38.794Z,100898.41
2023-09-27T08:04:11.883Z,100896.72
2023-09-27T08:06:40.006Z,100896.09
2023-09-27T08:09:14.773Z,100880.97
2023-09-27T08:11:48.167Z,100887.38
2023-09-27T08:14:17.470Z,100879.06
2023-09-27T08:16:45.719Z,100880.75
2023-09-27T08:19:13.779Z,100879.72
2023-09-27T08:21:40.376Z,100875.47
2023-09-27T08:24:07.900Z,100883.69
2023-09-27T08:26:35.973Z,100881.13
2023-09-27T08:29:02.567Z,100877.81
2023-09-27T08:31:31.516Z,100873.28
2023-09-27T08:33:58.356Z,100880.47
2023-09-27T08:36:25.048Z,100868.78
2023-09-27T08:38:51.848Z,100875.66
2023-09-27T08:41:19.550Z,100867.09
2023-09-27T08:43:46.952Z,100870.22
2023-09-27T08:46:13.498Z,100876.94
2023-09-27T08:48:40.554Z,100870.50
2023-09-27T08:51:08.080Z,100876.38
2023-09-27T08:53:39.392Z,100874.75
2023-09-27T08:56:07.769Z,100878.22
2023-09-27T08:58:36.194Z,100877.91
2023-09-27T09:01:05.288Z,100874.47
2023-09-27T09:03:33.282Z,100873.94
2023-09-27T09:06:00.181Z,100875.59
2023-09-27T09:08:42.630Z,100889.38
2023-09-27T09:11:12.065Z,100879.69
2023-09-27T09:13:57.767Z,100882.94
2023-09-27T09:16:25.021Z,100877.56
2023-09-27T09:18:56.677Z,100864.28
2023-09-27T09:21:26.316Z,100870.09
2023-09-27T09:23:53.093Z,100864.88
2023-09-27T09:26:31.047Z,100860.34
2023-09-27T09:29:01.090Z,100863.00
2023-09-27T09:31:29.656Z,100856.25
2023-09-27T09:34:08.988Z,100857.81
2023-09-27T09:36:36.823Z,100853.78
2023-09-27T09:39:08.071Z,100856.44
2023-09-27T09:41:51.105Z,100850.31
2023-09-27T09:44:21.154Z,100846.13
2023-09-27T09:46:48.236Z,100841.72
2023-09-27T09:49:18.766Z,100838.88
2023-09-27T09:51:48.853Z,100846.59
2023-09-27T09:54:35.555Z,100842.56
2023-09-27T09:57:11.016Z,100836.38
2023-09-27T09:59:59.083Z,100837.41
2023-09-27T10:02:28.642Z,100836.91
2023-09-27T10:04:58.064Z,100826.19
2023-09-27T10:07:25.075Z,100827.44
2023-09-27T10:09:53.416Z,100830.75
2023-09-27T10:12:25.088Z,100828.66
2023-09-27T10:14:53.082Z,100832.28
2023-09-27T10:17:24.356Z,100821.59
2023-09-27T10:20:13.920Z,100821.53
2023-09-27T10:22:44.074Z,100827.94
2023-09-27T10:25:31.474Z,100811.53
2023-09-27T10:28:05.718Z,100815.38
2023-09-27T10:30:41.592Z,100814.66
2023-09-27T10:33:17.868Z,100808.97
2023-09-27T10:35:46.296Z,100815.50
2023-09-27T10:38:13.557Z,100815.38
2023-09-27T10:40:47.584Z,100812.44
2023-09-27T10:43:35.979Z,100813.59
2023-09-27T10:46:06.221Z,100806.69
2023-09-27T10:48:32.810Z,100797.41
2023-09-27T10:50:59.601Z,100796.03
2023-09-27T10:53:27.939Z,100796.09
2023-09-27T10:55:54.820Z,100788.00
2023-09-27T10:58:21.666Z,100793.28
2023-09-27T11:00:52.375Z,100784.88
2023-09-27T11:03:19.623Z,100772.97
2023-09-27T11:05:46.482Z,100773.53
2023-09-27T11:08:20.743Z,100772.25
2023-09-27T11:10:48.591Z,100769.63
2023-09-27T11:13:15.298Z,100766.91
2023-09-27T11:15:43.129Z,100762.00
2023-09-27T11:18:11.236Z,100766.38
2023-09-27T11:20:41.891Z,100758.09
2023-09-27T11:23:08.744Z,100753.50
2023-09-27T11:25:44.051Z,100748.78
2023-09-27T11:28:16.496Z,100741.00
2023-09-27T11:30:43.066Z,100742.78
2023-09-27T11:33:09.788Z,100736.41
2023-09-27T11:35:36.941Z,100735.66
2023-09-27T11:38:14.512Z,100728.84
2023-09-27T11:40:44.928Z,100720.22
2023-09-27T11:43:13.231Z,100722.31
2023-09-27T11:45:50.543Z,100709.16
2023-09-27T11:48:31.663Z,100707.41
2023-09-27T11:50:59.807Z,100707.78
2023-09-27T11:53:26.468Z,100702.81
2023-09-27T11:55:55.280Z,100691.38
2023-09-27T11:58:22.146Z,100676.03
2023-09-27T12:00:48.881Z,100673.34
2023-09-27T12:03:15.584Z,100675.19
2023-09-27T12:05:42.440Z,100678.19
2023-09-27T12:08:09.681Z,100661.06
2023-09-27T12:10:36.362Z,100661.16
2023-09-27T12:13:03.746Z,100659.75
2023-09-27T12:15:30.648Z,100659.06
2023-09-27T12:17:57.371Z,100657.84
2023-09-27T12:20:39.501Z,100650.69
2023-09-27T12:23:10.237Z,100650.44
2023-09-27T12:25:37.949Z,100645.81
2023-09-27T12:28:04.977Z,100641.69
2023-09-27T12:30:31.943Z,100640.44
2023-09-27T12:32:58.488Z,100640.88
2023-09-27T12:35:25.156Z,100634.97
2023-09-27T12:37:51.750Z,100628.84
2023-09-27T12:40:18.389Z,100627.19
2023-09-27T12:42:44.998Z,100629.75
2023-09-27T12:45:11.958Z,100619.19
2023-09-27T12:47:38.799Z,100628.75
2023-09-27T12:50:07.540Z,100619.47
2023-09-27T12:52:34.513Z,100606.63
2023-09-27T12:55:01.065Z,100605.56
2023-09-27T12:57:27.702Z,100593.03
2023-09-27T12:59:54.230Z,100594.13
2023-09-27T13:02:21.701Z,100598.03
2023-09-27T13:04:49.374Z,100587.19
2023-09-27T13:07:18.135Z,100583.16
2023-09-27T13:09:45.310Z,100586.25
2023-09-27T13:12:11.808Z,100583.00
2023-09-27T13:14:38.531Z,100580.50
2023-09-27T13:17:05.094Z,100575.38
2023-09-27T13:19:32.534Z,100564.28
2023-09-27T13:21:59.464Z,100565.81
2023-09-27T13:24:26.073Z,100554.81
2023-09-27T13:26:52.754Z,100563.25
2023-09-27T13:29:19.414Z,100551.00
2023-09-27T13:31:46.382Z,100540.34
2023-09-27T13:34:13.791Z,100543.19
2023-09-27T13:36:41.415Z,100539.44
2023-09-27T13:39:14.813Z,100544.97
2023-09-27T13:41:42.775Z,100546.19
2023-09-27T13:44:09.624Z,100533.59
2023-09-27T13:46:36.482Z,100530.59
2023-09-27T13:49:03.059Z,100525.22
2023-09-27T13:51:30.812Z,100525.03
2023-09-27T13:53:57.418Z,100515.47
2023-09-27T13:56:24.075Z,100512.47
2023-09-27T13:58:50.850Z,100516.56
2023-09-27T14:01:17.411Z,100509.44
2023-09-27T14:03:44.160Z,100505.63
2023-09-27T14:06:10.888Z,100505.25
2023-09-27T14:08:37.656Z,100502.75
2023-09-27T14:11:04.283Z,100502.06
2023-09-27T14:13:30.922Z,100504.00
2023-09-27T14:15:57.584Z,100499.75
2023-09-27T14:18:24.253Z,100503.09
2023-09-27T14:20:51.960Z,100499.72
2023-09-27T14:23:18.625Z,100491.72
2023-09-27T14:25:45.252Z,100494.13
2023-09-27T14:28:11.774Z,100489.84
2023-09-27T14:30:41.539Z,100475.22
2023-09-27T14:33:09.499Z,100474.69
2023-09-27T14:38:09.477Z,100467.31
2023-09-27T14:40:36.186Z,100466.59
2023-09-27T14:43:02.920Z,100469.38
2023-09-27T14:45:36.386Z,100467.69
2023-09-27T14:48:05.463Z,100462.41
2023-09-27T14:50:32.332Z,100461.47
2023-09-27T14:52:59.366Z,100462.28
2023-09-27T14:55:29.417Z,100456.13
2023-09-27T14:57:57.539Z,100450.56
2023-09-27T15:00:24.184Z,100454.28
2023-09-27T15:02:51.429Z,100447.44
2023-09-27T15:05:18.118Z,100441.69
2023-09-27T15:07:44.837Z,100448.16
2023-09-27T15:10:11.530Z,100449.09
2023-09-27T15:12:38.880Z,100441.66
2023-09-27T15:15:09.761Z,100444.56
2023-09-27T15:17:43.929Z,100439.59
2023-09-27T15:20:15.455Z,100429.22
2023-09-27T15:22:42.524Z,100433.03
2023-09-27T15:25:10.580Z,100432.34
2023-09-27T15:27:37.277Z,100433.75
2023-09-27T15:30:04.337Z,100434.69
2023-09-27T15:32:31.078Z,100438.59
2023-09-27T15:34:58.014Z,100431.03
2023-09-27T15:37:24.803Z,100436.94
2023-09-27T15:39:52.193Z,100435.06
2023-09-27T15:42:18.698Z,100425.06
2023-09-27T15:44:45.325Z,100428.09
2023-09-27T15:47:15.540Z,100422.78
2023-09-27T15:49:42.307Z,100428.97
2023-09-27T15:52:09.910Z,100429.63
2023-09-27T15:54:36.728Z,100435.72
2023-09-27T15:57:03.577Z,100424.25
2023-09-27T15:59:30.197Z,100426.31
2023-09-27T16:01:57.649Z,100423.63
2023-09-27T16:04:26.306Z,100418.34
2023-09-27T16:06:54.589Z,100424.38
2023-09-27T16:09:21.625Z,100412.56
2023-09-27T16:11:49.348Z,100430.91
2023-09-27T16:14:15.893Z,100423.31
2023-09-27T16:16:42.525Z,100430.97
2023-09-27T16:19:09.136Z,100429.22
2023-09-27T16:21:35.668Z,100433.16
2023-09-27T16:24:02.448Z,100430.88
2023-09-27T16:26:29.020Z,100434.94
2023-09-27T16:28:55.591Z,100426.63
2023-09-27T16:31:22.734Z,100435.69
2023-09-27T16:33:49.536Z,100439.00
2023-09-27T16:36:17.847Z,100437.13
2023-09-27T16:38:45.036Z,100438.59
2023-09-27T16:41:13.567Z,100435.84
2023-09-27T16:43:40.886Z,100435.41
2023-09-27T16:46:08.488Z,100433.75
2023-09-27T16:48:35.940Z,100438.34
2023-09-27T16:51:02.861Z,100444.34
2023-09-27T16:53:29.505Z,100437.28
2023-09-27T16:55:56.339Z,100445.88
2023-09-27T16:58:26.538Z,100446.47
2023-09-27T17:00:53.354Z,100451.97
2023-09-27T17:03:20.912Z,100457.41
2023-09-27T17:05:47.978Z,100445.00
2023-09-27T17:08:14.513Z,100457.63
2023-09-27T17:10:41.616Z,100458.59
2023-09-27T17:13:09.279Z,100465.22
2023-09-27T17:15:35.804Z,100467.22
2023-09-27T17:18:02.442Z,100470.13
2023-09-27T17:20:29.270Z,100472.13
2023-09-27T17:22:56.026Z,100477.66
2023-09-27T17:25:22.822Z,100486.69
2023-09-27T17:27:49.475Z,100482.84
2023-09-27T17:30:16.741Z,100480.03
2023-09-27T17:32:44.169Z,100472.47
2023-09-27T17:35:11.279Z,100469.63
2023-09-27T17:37:38.310Z,100473.13
2023-09-27T17:40:08.801Z,100466.84
2023-09-27T17:42:37.330Z,100463.94
2023-09-27T17:45:06.243Z,100468.13
2023-09-27T17:47:32.912Z,100464.34
2023-09-27T17:49:59.661Z,100462.50
2023-09-27T17:52:26.319Z,100469.09
2023-09-27T17:54:53.188Z,100468.53
2023-09-27T17:57:20.273Z,100463.19
2023-09-27T17:59:46.964Z,100463.59
2023-09-27T18:02:13.559Z,100457.94
2023-09-27T18:04:40.522Z,100456.75
2023-09-27T18:07:07.292Z,100461.09
2023-09-27T18:09:37.144Z,100467.47
2023-09-27T18:12:03.991Z,100462.59
2023-09-27T18:14:30.725Z,100468.69
2023-09-27T18:16:57.983Z,100470.34
2023-09-27T18:19:24.799Z,100466.19
2023-09-27T18:21:51.375Z,100464.03
2023-09-27T18:24:18.016Z,100462.66
2023-09-27T18:26:45.038Z,100461.28
2023-09-27T18:29:11.627Z,100457.38
2023-09-27T18:31:40.003Z,100462.06
2023-09-27T18:34:06.883Z,100451.09
2023-09-27T18:36:34.562Z,100454.31
2023-09-27T18:39:01.433Z,100449.84
2023-09-27T18:41:28.517Z,100452.88
2023-09-27T18:43:55.447Z,100459.06
2023-09-27T18:46:22.900Z,100453.09
2023-09-27T18:48:51.497Z,100464.81
2023-09-27T18:51:22.607Z,100456.97
2023-09-27T18:53:50.452Z,100460.59
2023-09-27T18:56:16.967Z,100456.50
2023-09-27T18:58:43.768Z,100461.53
2023-09-27T19:01:10.384Z,100465.28
2023-09-27T19:03:37.171Z,100468.19
2023-09-27T19:06:03.826Z,100476.56
2023-09-27T19:08:30.495Z,100472.47
2023-09-27T19:10:57.089Z,100479.91
2023-09-27T19:13:23.806Z,100476.94
2023-09-27T19:15:50.609Z,100477.19
2023-09-27T19:18:17.217Z,100479.44
2023-09-27T19:20:43.974Z,100479.69
2023-09-27T19:23:10.669Z,100481.22
2023-09-27T19:25:37.265Z,100477.16
2023-09-27T19:28:04.069Z,100478.41
2023-09-27T19:30:34.117Z,100482.34
2023-09-27T19:33:00.766Z,100475.63
2023-09-27T19:35:29.522Z,100481.28
2023-09-27T19:37:56.082Z,100475.69
2023-09-27T19:40:23.998Z,100474.53
2023-09-27T19:42:51.048Z,100471.56
2023-09-27T19:45:17.662Z,100481.41
2023-09-27T19:47:44.273Z,100478.66
2023-09-27T19:50:11.121Z,100478.34
2023-09-27T19:52:38.852Z,100482.47
2023-09-27T19:55:10.004Z,100487.34
2023-09-27T19:57:37.128Z,100484.56
2023-09-27T20:00:08.009Z,100479.59
2023-09-27T20:02:35.753Z,100482.78
2023-09-27T20:05:02.271Z,100480.88
2023-09-27T20:07:29.102Z,100487.44
2023-09-27T20:09:55.633Z,100496.94
2023-09-27T20:12:22.413Z,100495.16
2023-09-27T20:14:49.360Z,100495.91
2023-09-27T20:17:15.898Z,100499.38
2023-09-27T20:19:42.541Z,100502.78
2023-09-27T20:22:10.192Z,100499.91
2023-09-27T20:24:39.114Z,100494.00
2023-09-27T20:27:06.104Z,100496.66
2023-09-27T20:29:33.342Z,100509.41
2023-09-27T20:32:00.009Z,100508.38
2023-09-27T20:34:26.618Z,100505.38
2023-09-27T20:36:53.255Z,100499.47
2023-09-27T20:39:20.801Z,100494.78
2023-09-27T20:41:47.290Z,100495.63
2023-09-27T20:44:14.243Z,100487.50
2023-09-27T20:46:40.900Z,100480.31
2023-09-27T20:49:07.623Z,100474.69
2023-09-27T20:51:34.205Z,100470.22
2023-09-27T20:54:00.699Z,100467.44
2023-09-27T20:56:27.255Z,100464.38
2023-09-27T20:58:54.894Z,100454.03
2023-09-27T21:01:29.255Z,100450.44
2023-09-27T21:03:56.410Z,100456.00
2023-09-27T21:06:30.533Z,100450.63
2023-09-27T21:08:58.800Z,100447.22
2023-09-27T21:11:25.765Z,100444.81
2023-09-27T21:13:58.295Z,100438.19
2023-09-27T21:16:26.710Z,100437.09
2023-09-27T21:18:54.531Z,100436.59
2023-09-27T21:21:22.745Z,100435.09
2023-09-27T21:23:49.452Z,100434.34
2023-09-27T21:26:16.025Z,100426.72
2023-09-27T21:28:42.632Z,100420.31
2023-09-27T21:31:10.741Z,100422.19
2023-09-27T21:33:38.379Z,100423.00
2023-09-27T21:36:05.261Z,100433.84
2023-09-27T21:38:32.064Z,100433.00
2023-09-27T21:40:58.997Z,100431.69
2023-09-27T21:43:26.847Z,100428.28
2023-09-27T21:45:53.673Z,100437.03
2023-09-27T21:48:22.171Z,100430.75
2023-09-27T21:50:48.685Z,100425.66
2023-09-27T21:53:15.328Z,100426.09
2023-09-27T21:55:41.871Z,100431.00
2023-09-27T21:58:08.913Z,100428.06
2023-09-27T22:00:35.939Z,100428.59
2023-09-27T22:03:04.258Z,100422.47
2023-09-27T22:05:33.547Z,100425.38
2023-09-27T22:08:01.180Z,100435.06
2023-09-27T22:10:36.041Z,100429.06
2023-09-27T22:13:22.304Z,100428.75
2023-09-27T22:15:54.814Z,100436.13
2023-09-27T22:18:22.254Z,100427.44
2023-09-27T22:20:49.469Z,100434.94
2023-09-27T22:23:34.748Z,100441.28
2023-09-27T22:26:06.236Z,100434.31
2023-09-27T22:28:32.793Z,100437.53
2023-09-27T22:31:02.293Z,100431.88
2023-09-27T22:33:31.078Z,100433.00
2023-09-27T22:35:58.342Z,100421.75
2023-09-27T22:38:24.921Z,100433.00
2023-09-27T22:40:51.609Z,100437.19
2023-09-27T22:43:18.419Z,100435.03
2023-09-27T22:45:48.948Z,100431.66
2023-09-27T22:48:20.808Z,100444.53
2023-09-27T22:50:50.214Z,100437.94
2023-09-27T22:53:20.754Z,100441.72
2023-09-27T22:55:51.488Z,100448.78
2023-09-27T22:58:19.535Z,100447.69
2023-09-27T23:00:57.972Z,100444.19
2023-09-27T23:03:27.973Z,100467.06
2023-09-27T23:05:57.775Z,100460.34
2023-09-27T23:08:28.385Z,100468.25
2023-09-27T23:10:59.409Z,100464.19
2023-09-27T23:13:30.810Z,100461.00
2023-09-27T23:15:57.853Z,100456.59
2023-09-27T23:18:28.349Z,100456.03
2023-09-27T23:20:56.339Z,100453.47
2023-09-27T23:23:24.296Z,100454.31
2023-09-27T23:25:55.240Z,100453.88
2023-09-27T23:28:41.228Z,100457.72
2023-09-27T23:31:11.698Z,100447.00
2023-09-27T23:33:44.394Z,100452.25
2023-09-27T23:36:24.436Z,100449.16
2023-09-27T23:38:58.734Z,100454.25
2023-09-27T23:41:30.694Z,100445.59
2023-09-27T23:44:01.544Z,100447.19
2023-09-27T23:46:28.627Z,100455.03
2023-09-27T23:48:55.285Z,100451.66
2023-09-27T23:51:22.058Z,100462.41
2023-09-27T23:53:48.665Z,100450.84
2023-09-27T23:56:16.675Z,100455.03
2023-09-27T23:58:44.731Z,100463.69
